createdAt,value
2018-12-17T00:01:27.926Z,1.00
2018-12-17T00:03:56.303Z,0.90
2018-12-17T00:06:24.755Z,0.90
2018-12-17T00:08:53.136Z,0.90
2018-12-17T00:11:21.559Z,0.90
2018-12-17T00:13:49.928Z,0.90
2018-12-17T00:16:18.304Z,0.90
2018-12-17T00:18:46.662Z,0.90
2018-12-17T00:21:15.007Z,0.80
2018-12-17T00:23:43.368Z,0.80
2018-12-17T00:26:12.219Z,0.80
2018-12-17T00:28:40.586Z,0.80
2018-12-17T00:31:09.011Z,0.80
2018-12-17T00:33:37.376Z,0.80
2018-12-17T00:36:05.848Z,0.80
2018-12-17T00:38:34.213Z,0.80
2018-12-17T00:41:02.554Z,0.80
2018-12-17T00:43:31.230Z,0.80
2018-12-17T00:45:59.759Z,0.80
2018-12-17T00:48:28.561Z,0.80
2018-12-17T00:50:56.962Z,0.80
2018-12-17T00:53:25.326Z,0.80
2018-12-17T00:55:53.663Z,0.80
2018-12-17T00:58:22.045Z,0.90
2018-12-17T01:00:50.395Z,0.90
2018-12-17T01:03:18.763Z,0.90
2018-12-17T01:05:47.103Z,0.90
2018-12-17T01:08:15.475Z,0.90
2018-12-17T01:10:43.843Z,0.90
2018-12-17T01:13:12.168Z,0.90
2018-12-17T01:15:40.525Z,0.90
2018-12-17T01:18:08.883Z,0.90
2018-12-17T01:20:37.254Z,0.90
2018-12-17T01:23:05.624Z,0.90
2018-12-17T01:25:34.195Z,0.90
2018-12-17T01:28:02.575Z,0.90
2018-12-17T01:30:30.940Z,0.90
2018-12-17T01:32:59.471Z,0.90
2018-12-17T01:35:27.856Z,0.90
2018-12-17T01:37:56.202Z,0.90
2018-12-17T01:40:24.584Z,0.90
2018-12-17T01:42:52.938Z,0.90
2018-12-17T01:45:21.320Z,1.00
2018-12-17T01:47:49.672Z,0.90
2018-12-17T01:50:18.067Z,0.90
2018-12-17T01:52:46.436Z,1.00
2018-12-17T01:55:14.923Z,1.00
2018-12-17T01:57:43.283Z,1.00
2018-12-17T02:00:11.764Z,1.00
2018-12-17T02:02:40.111Z,1.00
2018-12-17T02:05:08.524Z,1.00
2018-12-17T02:07:36.871Z,1.00
2018-12-17T02:10:05.388Z,1.00
2018-12-17T02:12:33.755Z,1.00
2018-12-17T02:15:02.181Z,1.00
2018-12-17T02:17:30.547Z,1.00
2018-12-17T02:19:58.927Z,1.00
2018-12-17T02:22:27.280Z,1.00
2018-12-17T02:24:55.664Z,1.00
2018-12-17T02:27:24.022Z,1.00
2018-12-17T02:29:52.379Z,1.00
2018-12-17T02:32:20.724Z,1.00
2018-12-17T02:34:49.092Z,1.00
2018-12-17T02:37:17.451Z,1.00
2018-12-17T02:39:45.807Z,1.00
2018-12-17T02:42:14.169Z,1.00
2018-12-17T02:44:42.604Z,1.00
2018-12-17T02:47:10.980Z,1.00
2018-12-17T02:49:39.483Z,1.00
2018-12-17T02:52:07.947Z,1.10
2018-12-17T02:54:36.418Z,1.10
2018-12-17T02:57:04.784Z,1.10
2018-12-17T02:59:33.236Z,1.10
2018-12-17T03:02:01.621Z,1.10
2018-12-17T03:04:30.002Z,1.10
2018-12-17T03:06:58.596Z,1.10
2018-12-17T03:09:26.959Z,1.10
2018-12-17T03:11:55.367Z,1.10
2018-12-17T03:14:23.837Z,1.10
2018-12-17T03:16:52.224Z,1.20
2018-12-17T03:19:20.592Z,1.10
2018-12-17T03:21:49.184Z,1.20
2018-12-17T03:24:17.539Z,1.20
2018-12-17T03:26:46.107Z,1.20
2018-12-17T03:29:14.482Z,1.20
2018-12-17T03:31:43.138Z,1.20
2018-12-17T03:34:11.518Z,1.20
2018-12-17T03:36:39.899Z,1.20
2018-12-17T03:39:08.240Z,1.20
2018-12-17T03:41:37.010Z,1.20
2018-12-17T03:44:05.375Z,1.20
2018-12-17T03:46:33.757Z,1.20
2018-12-17T03:49:02.120Z,1.30
2018-12-17T03:51:30.498Z,1.30
2018-12-17T03:53:58.954Z,1.30
2018-12-17T03:56:27.333Z,1.30
2018-12-17T03:58:59.286Z,1.30
2018-12-17T04:01:26.113Z,1.30
2018-12-17T04:03:54.443Z,1.30
2018-12-17T04:06:22.890Z,1.30
2018-12-17T04:08:51.237Z,1.30
2018-12-17T04:11:19.618Z,1.30
2018-12-17T04:13:47.972Z,1.30
2018-12-17T04:16:16.358Z,1.30
2018-12-17T04:18:44.735Z,1.30
2018-12-17T04:21:13.095Z,1.30
2018-12-17T04:23:41.456Z,1.40
2018-12-17T04:26:09.835Z,1.30
2018-12-17T04:28:38.205Z,1.40
2018-12-17T04:31:06.606Z,1.40
2018-12-17T04:33:34.983Z,1.40
2018-12-17T04:36:03.380Z,1.40
2018-12-17T04:38:31.720Z,1.40
2018-12-17T04:41:00.104Z,1.40
2018-12-17T04:43:28.473Z,1.40
2018-12-17T04:45:56.928Z,1.40
2018-12-17T04:48:25.299Z,1.40
2018-12-17T04:50:53.660Z,1.40
2018-12-17T04:53:22.009Z,1.40
2018-12-17T04:55:50.548Z,1.40
2018-12-17T04:58:18.923Z,1.40
2018-12-17T05:00:47.291Z,1.40
2018-12-17T05:03:15.643Z,1.40
2018-12-17T05:05:44.040Z,1.40
2018-12-17T05:08:12.384Z,1.40
2018-12-17T05:10:40.736Z,1.40
2018-12-17T05:13:09.087Z,1.40
2018-12-17T05:15:37.524Z,1.40
2018-12-17T05:18:05.889Z,1.40
2018-12-17T05:20:34.310Z,1.40
2018-12-17T05:23:02.702Z,1.40
2018-12-17T05:25:31.258Z,1.50
2018-12-17T05:27:59.621Z,1.50
2018-12-17T05:30:27.991Z,1.50
2018-12-17T05:32:56.357Z,1.50
2018-12-17T05:35:24.711Z,1.50
2018-12-17T05:37:53.051Z,1.50
2018-12-17T05:40:21.405Z,1.50
2018-12-17T05:42:49.752Z,1.50
2018-12-17T05:45:18.137Z,1.50
2018-12-17T05:47:46.483Z,1.50
2018-12-17T05:50:14.851Z,1.50
2018-12-17T05:52:43.184Z,1.50
2018-12-17T05:55:11.543Z,1.50
2018-12-17T05:57:39.903Z,1.50
2018-12-17T06:00:08.707Z,1.50
2018-12-17T06:02:37.052Z,1.60
2018-12-17T06:05:05.822Z,1.60
2018-12-17T06:07:34.187Z,1.60
2018-12-17T06:10:02.553Z,1.60
2018-12-17T06:12:30.927Z,1.60
2018-12-17T06:14:59.988Z,1.60
2018-12-17T06:17:28.380Z,1.60
2018-12-17T06:19:56.852Z,1.60
2018-12-17T06:22:25.225Z,1.60
2018-12-17T06:24:53.604Z,1.70
2018-12-17T06:27:22.028Z,1.70
2018-12-17T06:29:50.468Z,1.70
2018-12-17T06:32:18.831Z,1.70
2018-12-17T06:34:47.191Z,1.70
2018-12-17T06:37:15.603Z,1.70
2018-12-17T06:39:43.960Z,1.70
2018-12-17T06:42:12.421Z,1.70
2018-12-17T06:44:40.795Z,1.70
2018-12-17T06:47:09.163Z,1.80
2018-12-17T06:49:37.512Z,1.80
2018-12-17T06:52:06.043Z,1.80
2018-12-17T06:54:34.770Z,1.80
2018-12-17T06:57:03.350Z,1.80
2018-12-17T06:59:31.709Z,1.80
2018-12-17T07:02:00.203Z,1.80
2018-12-17T07:04:28.615Z,1.80
2018-12-17T07:06:57.011Z,1.80
2018-12-17T07:09:25.403Z,1.80
2018-12-17T07:11:53.874Z,1.80
2018-12-17T07:14:22.235Z,1.80
2018-12-17T07:16:50.740Z,1.80
2018-12-17T07:19:19.156Z,1.80
2018-12-17T07:21:47.643Z,1.80
2018-12-17T07:24:16.041Z,1.80
2018-12-17T07:26:44.441Z,1.80
2018-12-17T07:29:12.855Z,1.80
2018-12-17T07:31:41.343Z,1.80
2018-12-17T07:34:09.711Z,1.90
2018-12-17T07:36:38.371Z,1.80
2018-12-17T07:39:08.844Z,1.80
2018-12-17T07:41:37.484Z,1.90
2018-12-17T07:44:06.156Z,1.90
2018-12-17T07:46:34.482Z,1.90
2018-12-17T07:49:02.843Z,1.90
2018-12-17T07:51:31.235Z,1.90
2018-12-17T07:53:59.600Z,1.90
2018-12-17T07:56:27.933Z,1.90
2018-12-17T07:58:56.348Z,1.90
2018-12-17T08:01:24.698Z,1.90
2018-12-17T08:03:53.083Z,2.00
2018-12-17T08:06:21.427Z,2.00
2018-12-17T08:08:50.973Z,2.00
2018-12-17T08:11:19.494Z,2.00
2018-12-17T08:13:47.863Z,2.00
2018-12-17T08:16:16.267Z,2.00
2018-12-17T08:18:44.721Z,2.10
2018-12-17T08:21:13.076Z,2.10
2018-12-17T08:23:41.467Z,2.10
2018-12-17T08:26:09.815Z,2.10
2018-12-17T08:28:38.239Z,2.10
2018-12-17T08:31:06.770Z,2.10
2018-12-17T08:33:35.156Z,2.20
2018-12-17T08:36:03.652Z,2.20
2018-12-17T08:38:32.009Z,2.20
2018-12-17T08:41:00.363Z,2.20
2018-12-17T08:43:28.787Z,2.30
2018-12-17T08:45:57.724Z,2.30
2018-12-17T08:48:26.091Z,2.30
2018-12-17T08:50:54.464Z,2.30
2018-12-17T08:53:22.847Z,2.30
2018-12-17T08:55:51.179Z,2.40
2018-12-17T08:58:19.752Z,2.40
2018-12-17T09:00:48.128Z,2.40
2018-12-17T09:03:16.516Z,2.40
2018-12-17T09:05:44.974Z,2.40
2018-12-17T09:08:13.328Z,2.50
2018-12-17T09:10:41.734Z,2.50
2018-12-17T09:13:10.079Z,2.50
2018-12-17T09:15:38.468Z,2.60
2018-12-17T09:18:07.370Z,2.60
2018-12-17T09:20:35.960Z,2.60
2018-12-17T09:23:04.417Z,2.60
2018-12-17T09:25:32.805Z,2.60
2018-12-17T09:28:01.160Z,2.60
2018-12-17T09:30:29.676Z,2.60
2018-12-17T09:32:58.023Z,2.60
2018-12-17T09:35:26.414Z,2.60
2018-12-17T09:37:54.767Z,2.60
2018-12-17T09:40:23.142Z,2.60
2018-12-17T09:42:51.515Z,2.70
2018-12-17T09:45:19.878Z,2.70
2018-12-17T09:47:48.316Z,2.70
2018-12-17T09:50:16.843Z,2.80
2018-12-17T09:52:45.203Z,2.80
2018-12-17T09:55:13.625Z,2.80
2018-12-17T09:57:41.967Z,2.80
2018-12-17T10:00:10.676Z,2.80
2018-12-17T10:02:39.024Z,2.90
2018-12-17T10:05:07.515Z,2.90
2018-12-17T10:07:35.922Z,2.90
2018-12-17T10:10:04.999Z,2.90
2018-12-17T10:12:33.379Z,2.90
2018-12-17T10:15:01.757Z,2.90
2018-12-17T10:17:30.244Z,3.00
2018-12-17T10:19:58.579Z,3.00
2018-12-17T10:22:26.959Z,3.00
2018-12-17T10:24:55.650Z,3.00
2018-12-17T10:27:24.079Z,3.00
2018-12-17T10:29:52.428Z,3.00
2018-12-17T10:32:20.795Z,3.10
2018-12-17T10:34:49.214Z,3.10
2018-12-17T10:37:17.557Z,3.10
2018-12-17T10:39:45.904Z,3.20
2018-12-17T10:42:14.283Z,3.20
2018-12-17T10:44:42.757Z,3.30
2018-12-17T10:47:11.257Z,3.40
2018-12-17T10:49:39.728Z,3.40
2018-12-17T10:52:08.144Z,3.40
2018-12-17T10:54:36.484Z,3.50
2018-12-17T10:57:04.841Z,3.50
2018-12-17T10:59:33.210Z,3.50
2018-12-17T11:02:09.635Z,3.60
2018-12-17T11:04:42.253Z,3.60
2018-12-17T11:07:10.598Z,3.60
2018-12-17T11:09:39.079Z,3.70
2018-12-17T11:12:07.475Z,3.80
2018-12-17T11:14:35.847Z,3.80
2018-12-17T11:17:04.288Z,3.80
2018-12-17T11:19:32.656Z,3.90
2018-12-17T11:22:01.139Z,3.90
2018-12-17T11:24:29.539Z,4.00
2018-12-17T11:26:57.972Z,4.00
2018-12-17T11:29:26.344Z,4.00
2018-12-17T11:31:56.259Z,4.00
2018-12-17T11:34:24.818Z,4.00
2018-12-17T11:36:53.233Z,4.00
2018-12-17T11:39:21.736Z,4.00
2018-12-17T11:41:50.770Z,4.00
2018-12-17T11:44:19.148Z,4.00
2018-12-17T11:46:47.698Z,4.10
2018-12-17T11:49:16.228Z,4.10
2018-12-17T11:51:44.795Z,4.10
2018-12-17T11:54:13.167Z,4.10
2018-12-17T11:59:01.669Z,4.10
2018-12-17T12:01:30.024Z,4.10
2018-12-17T12:03:58.675Z,4.10
2018-12-17T12:06:27.148Z,4.10
2018-12-17T12:08:55.523Z,4.20
2018-12-17T12:11:23.876Z,4.10
2018-12-17T12:13:52.352Z,4.20
2018-12-17T12:16:21.330Z,4.20
2018-12-17T12:18:49.716Z,4.20
2018-12-17T12:21:18.131Z,4.30
2018-12-17T12:23:46.596Z,4.30
2018-12-17T12:26:15.041Z,4.30
2018-12-17T12:28:43.400Z,4.30
2018-12-17T12:31:11.740Z,4.30
2018-12-17T12:33:40.105Z,4.30
2018-12-17T12:36:08.548Z,4.20
2018-12-17T12:38:36.883Z,4.20
2018-12-17T12:41:05.280Z,4.20
2018-12-17T12:43:33.652Z,4.20
2018-12-17T12:46:02.001Z,4.10
2018-12-17T12:48:30.474Z,4.10
2018-12-17T12:50:58.864Z,4.10
2018-12-17T12:53:27.231Z,4.10
2018-12-17T12:55:55.596Z,4.10
2018-12-17T12:58:23.955Z,4.10
2018-12-17T13:00:52.320Z,4.10
2018-12-17T13:03:20.707Z,4.10
2018-12-17T13:05:49.080Z,4.10
2018-12-17T13:08:17.438Z,4.10
2018-12-17T13:10:45.806Z,4.10
2018-12-17T13:13:14.170Z,4.10
2018-12-17T13:15:42.537Z,4.10
2018-12-17T13:18:10.900Z,4.10
2018-12-17T13:20:39.287Z,4.10
2018-12-17T13:23:07.660Z,4.10
2018-12-17T13:25:41.302Z,4.10
2018-12-17T13:28:09.630Z,4.10
2018-12-17T13:30:38.123Z,4.00
2018-12-17T13:33:06.543Z,4.10
2018-12-17T13:35:34.861Z,4.10
2018-12-17T13:38:03.235Z,4.10
2018-12-17T13:40:31.675Z,4.10
2018-12-17T13:43:00.011Z,4.10
2018-12-17T13:45:28.385Z,4.00
2018-12-17T13:47:56.890Z,4.00
2018-12-17T13:50:30.700Z,4.00
2018-12-17T13:53:04.559Z,4.00
2018-12-17T13:55:32.932Z,4.00
2018-12-17T13:58:01.303Z,4.00
2018-12-17T14:00:29.651Z,4.00
2018-12-17T14:02:58.050Z,4.00
2018-12-17T14:05:26.506Z,4.00
2018-12-17T14:07:54.950Z,4.00
2018-12-17T14:10:28.760Z,4.00
2018-12-17T14:12:57.142Z,4.00
2018-12-17T14:15:29.712Z,4.00
2018-12-17T14:17:58.088Z,4.00
2018-12-17T14:20:31.691Z,4.00
2018-12-17T14:23:00.168Z,4.00
2018-12-17T14:25:28.622Z,4.00
2018-12-17T14:27:56.995Z,4.00
2018-12-17T14:30:25.360Z,4.00
2018-12-17T14:32:53.719Z,4.00
2018-12-17T14:35:22.054Z,4.00
2018-12-17T14:37:55.711Z,3.90
2018-12-17T14:40:24.093Z,4.00
2018-12-17T14:42:52.590Z,4.00
2018-12-17T14:45:21.096Z,4.00
2018-12-17T14:47:49.451Z,4.00
2018-12-17T14:50:17.814Z,4.00
2018-12-17T14:52:46.167Z,4.00
2018-12-17T14:55:14.507Z,4.00
2018-12-17T14:57:42.848Z,4.00
2018-12-17T15:00:11.390Z,4.00
2018-12-17T15:02:39.767Z,4.00
2018-12-17T15:05:08.351Z,4.00
2018-12-17T15:07:36.688Z,4.00
2018-12-17T15:10:05.463Z,4.00
2018-12-17T15:12:33.958Z,4.00
2018-12-17T15:15:02.395Z,4.00
2018-12-17T15:17:30.763Z,4.00
2018-12-17T15:19:59.267Z,4.00
2018-12-17T15:22:27.598Z,4.00
2018-12-17T15:24:56.011Z,4.00
2018-12-17T15:27:24.507Z,4.00
2018-12-17T15:29:52.891Z,4.00
2018-12-17T15:32:21.232Z,4.00
2018-12-17T15:34:49.593Z,4.00
2018-12-17T15:37:17.936Z,4.00
2018-12-17T15:39:46.287Z,4.00
2018-12-17T15:42:14.615Z,4.00
2018-12-17T15:44:42.982Z,4.00
2018-12-17T15:47:11.363Z,4.00
2018-12-17T15:49:39.819Z,4.00
2018-12-17T15:52:08.259Z,4.00
2018-12-17T15:54:36.614Z,4.00
2018-12-17T15:57:04.994Z,4.00
2018-12-17T15:59:33.547Z,4.00
2018-12-17T16:02:01.903Z,4.00
2018-12-17T16:04:30.228Z,4.00
2018-12-17T16:06:58.594Z,3.90
2018-12-17T16:09:26.937Z,3.90
2018-12-17T16:11:55.811Z,3.90
2018-12-17T16:14:24.151Z,3.90
2018-12-17T16:16:52.482Z,3.90
2018-12-17T16:19:20.816Z,3.90
2018-12-17T16:21:49.254Z,3.90
2018-12-17T16:24:17.743Z,3.90
2018-12-17T16:26:46.148Z,3.90
2018-12-17T16:29:14.499Z,3.90
2018-12-17T16:31:42.927Z,3.90
2018-12-17T16:34:11.305Z,4.00
2018-12-17T16:36:39.684Z,4.00
2018-12-17T16:39:08.366Z,4.00
2018-12-17T16:41:36.715Z,4.00
2018-12-17T16:44:05.105Z,4.00
2018-12-17T16:46:33.468Z,4.00
2018-12-17T16:49:01.835Z,4.10
2018-12-17T16:51:31.263Z,4.10
2018-12-17T16:54:00.420Z,4.10
2018-12-17T16:56:29.791Z,4.10
2018-12-17T16:58:59.599Z,4.10
2018-12-17T17:01:27.982Z,4.20
2018-12-17T17:03:56.533Z,4.20
2018-12-17T17:06:24.923Z,4.20
2018-12-17T17:08:53.387Z,4.20
2018-12-17T17:11:21.790Z,4.20
2018-12-17T17:13:50.123Z,4.20
2018-12-17T17:16:18.443Z,4.30
2018-12-17T17:18:46.827Z,4.30
2018-12-17T17:21:15.188Z,4.30
2018-12-17T17:23:43.549Z,4.30
2018-12-17T17:26:12.776Z,4.30
2018-12-17T17:28:41.192Z,4.30
2018-12-17T17:31:09.603Z,4.30
2018-12-17T17:33:37.974Z,4.30
2018-12-17T17:36:06.310Z,4.30
2018-12-17T17:38:34.651Z,4.30
2018-12-17T17:41:03.307Z,4.30
2018-12-17T17:43:31.683Z,4.30
2018-12-17T17:46:00.025Z,4.30
2018-12-17T17:48:28.499Z,4.30
2018-12-17T17:50:56.833Z,4.30
2018-12-17T17:53:25.315Z,4.30
2018-12-17T17:55:53.674Z,4.30
2018-12-17T17:58:22.051Z,4.30
2018-12-17T18:00:50.472Z,4.30
2018-12-17T18:03:18.823Z,4.30
2018-12-17T18:05:47.219Z,4.30
2018-12-17T18:08:15.615Z,4.30
2018-12-17T18:10:44.002Z,4.30
2018-12-17T18:13:12.423Z,4.30
2018-12-17T18:15:41.927Z,4.20
2018-12-17T18:18:10.567Z,4.30
2018-12-17T18:20:39.027Z,4.20
2018-12-17T18:23:08.223Z,4.20
2018-12-17T18:25:36.704Z,4.20
2018-12-17T18:28:05.154Z,4.20
2018-12-17T18:30:33.552Z,4.20
2018-12-17T18:33:01.926Z,4.20
2018-12-17T18:35:30.258Z,4.30
2018-12-17T18:37:58.684Z,4.20
2018-12-17T18:40:27.093Z,4.30
2018-12-17T18:42:55.591Z,4.30
2018-12-17T18:45:24.062Z,4.30
2018-12-17T18:47:52.409Z,4.30
2018-12-17T18:50:20.997Z,4.30
2018-12-17T18:52:49.445Z,4.30
2018-12-17T18:55:17.824Z,4.30
2018-12-17T18:57:46.163Z,4.30
2018-12-17T19:00:14.519Z,4.30
2018-12-17T19:02:42.952Z,4.30
2018-12-17T19:05:11.328Z,4.30
2018-12-17T19:07:39.727Z,4.30
2018-12-17T19:10:08.284Z,4.40
2018-12-17T19:12:37.160Z,4.40
2018-12-17T19:15:06.080Z,4.40
2018-12-17T19:17:34.400Z,4.40
2018-12-17T19:20:02.852Z,4.40
2018-12-17T19:22:31.199Z,4.40
2018-12-17T19:24:59.567Z,4.50
2018-12-17T19:27:27.916Z,4.50
2018-12-17T19:29:56.293Z,4.50
2018-12-17T19:32:24.631Z,4.50
2018-12-17T19:34:53.056Z,4.50
2018-12-17T19:37:21.387Z,4.50
2018-12-17T19:39:49.720Z,4.60
2018-12-17T19:42:18.029Z,4.60
2018-12-17T19:44:46.375Z,4.60
2018-12-17T19:47:14.795Z,4.60
2018-12-17T19:49:43.143Z,4.60
2018-12-17T19:52:11.513Z,4.60
2018-12-17T19:54:39.862Z,4.60
2018-12-17T19:57:08.240Z,4.70
2018-12-17T19:59:36.571Z,4.70
2018-12-17T20:02:05.234Z,4.70
2018-12-17T20:04:33.575Z,4.70
2018-12-17T20:07:01.981Z,4.70
2018-12-17T20:09:30.418Z,4.70
2018-12-17T20:11:58.851Z,4.80
2018-12-17T20:14:27.228Z,4.80
2018-12-17T20:16:55.646Z,4.80
2018-12-17T20:19:23.998Z,4.80
2018-12-17T20:21:52.419Z,4.80
2018-12-17T20:24:21.539Z,4.80
2018-12-17T20:26:49.917Z,4.80
2018-12-17T20:29:18.319Z,4.90
2018-12-17T20:31:46.693Z,4.90
2018-12-17T20:34:15.055Z,4.90
2018-12-17T20:36:43.439Z,4.90
2018-12-17T20:39:11.788Z,5.00
2018-12-17T20:41:40.150Z,5.00
2018-12-17T20:44:08.500Z,5.00
2018-12-17T20:46:36.853Z,5.00
2018-12-17T20:49:05.228Z,5.10
2018-12-17T20:51:33.585Z,5.10
2018-12-17T20:54:02.246Z,5.10
2018-12-17T20:56:30.615Z,5.10
2018-12-17T20:58:59.973Z,5.10
2018-12-17T21:01:28.334Z,5.10
2018-12-17T21:03:56.724Z,5.20
2018-12-17T21:06:25.070Z,5.20
2018-12-17T21:08:53.502Z,5.20
2018-12-17T21:11:21.856Z,5.20
2018-12-17T21:13:50.315Z,5.20
2018-12-17T21:16:18.675Z,5.20
2018-12-17T21:18:47.036Z,5.30
2018-12-17T21:21:15.416Z,5.30
2018-12-17T21:23:43.856Z,5.30
2018-12-17T21:26:12.239Z,5.30
2018-12-17T21:28:40.596Z,5.30
2018-12-17T21:31:08.984Z,5.30
2018-12-17T21:33:37.432Z,5.30
2018-12-17T21:36:05.803Z,5.40
2018-12-17T21:38:34.179Z,5.30
2018-12-17T21:41:02.553Z,5.40
2018-12-17T21:43:36.045Z,5.40
2018-12-17T21:46:01.323Z,5.40
2018-12-17T21:48:29.675Z,5.40
2018-12-17T21:50:58.060Z,5.40
2018-12-17T21:53:26.402Z,5.50
2018-12-17T21:55:54.735Z,5.50
2018-12-17T21:58:23.209Z,5.50
2018-12-17T22:00:51.549Z,5.50
2018-12-17T22:03:19.935Z,5.50
2018-12-17T22:05:48.291Z,5.50
2018-12-17T22:08:16.656Z,5.50
2018-12-17T22:10:44.999Z,5.50
2018-12-17T22:13:13.375Z,5.60
2018-12-17T22:15:41.704Z,5.60
2018-12-17T22:18:10.063Z,5.60
2018-12-17T22:20:38.416Z,5.60
2018-12-17T22:23:06.847Z,5.60
2018-12-17T22:25:35.203Z,5.70
2018-12-17T22:28:03.584Z,5.70
2018-12-17T22:30:31.924Z,5.70
2018-12-17T22:33:00.282Z,5.70
2018-12-17T22:35:28.652Z,5.70
2018-12-17T22:37:56.991Z,5.70
2018-12-17T22:40:25.569Z,5.70
2018-12-17T22:42:53.912Z,5.70
2018-12-17T22:45:22.364Z,5.80
2018-12-17T22:47:50.736Z,5.80
2018-12-17T22:50:19.117Z,5.80
2018-12-17T22:52:47.476Z,5.80
2018-12-17T22:55:15.832Z,5.80
2018-12-17T22:57:44.207Z,5.80
2018-12-17T23:00:12.699Z,5.80
2018-12-17T23:02:41.071Z,5.80
2018-12-17T23:05:09.610Z,5.80
2018-12-17T23:07:37.992Z,5.80
2018-12-17T23:10:17.780Z,5.80
2018-12-17T23:12:57.564Z,5.80
2018-12-17T23:15:37.368Z,5.90
2018-12-17T23:18:04.755Z,5.90
2018-12-17T23:20:33.129Z,5.90
2018-12-17T23:23:01.584Z,5.90
2018-12-17T23:25:29.903Z,5.90
2018-12-17T23:27:58.299Z,5.90
2018-12-17T23:30:26.753Z,5.90
2018-12-17T23:32:57.241Z,5.90
2018-12-17T23:35:25.644Z,5.90
2018-12-17T23:37:54.108Z,5.90
2018-12-17T23:40:22.444Z,6.00
2018-12-17T23:42:50.917Z,6.00
2018-12-17T23:45:20.423Z,6.00
2018-12-17T23:47:48.886Z,6.00
2018-12-17T23:50:17.299Z,6.00
2018-12-17T23:52:46.350Z,6.00
2018-12-17T23:55:14.691Z,6.00
2018-12-17T23:57:43.052Z,6.00
